Time;durP1;ratioP1;P1;durP2;ratioP2;P2;SDS_P1;SDS_P2;PMS_P1;PMS_P2;Temp;Humidity;BMP_temperature;BMP_pressure;BME280_temperature;BME280_humidity;BME280_pressure;Samples;Min_cycle;Max_cycle;Signal;HPM_P1;HPM_P2
2023/05/21 00:01:15;;;;;;;;;;;;;;;11.83;71.12;102237.30;107405;1256;125093;-87
2023/05/21 00:03:44;;;;;;;;;;;;;;;11.80;71.18;102236.26;107284;1254;62274;-87
2023/05/21 00:06:24;;;;;;;;;;;;;;;11.77;71.24;102234.73;107381;1254;124914;-87
2023/05/21 00:08:51;;;;;;;;;;;;;;;11.75;71.42;102236.26;107370;1254;73834;-88
2023/05/21 00:11:24;;;;;;;;;;;;;;;11.73;71.43;102234.90;107334;1254;65769;-87
2023/05/21 00:13:54;;;;;;;;;;;;;;;11.72;71.53;102236.28;107284;1254;125028;-87
2023/05/21 00:16:28;;;;;;;;;;;;;;;11.72;71.51;102233.45;107394;1257;61365;-87
2023/05/21 00:19:26;;;;;;;;;;;;;;;11.70;71.65;102233.36;107018;1257;298737;-88
2023/05/21 00:21:56;;;;;;;;;;;;;;;11.68;71.74;102235.75;107358;1259;73375;-88
2023/05/21 00:24:35;;;;;;;;;;;;;;;11.66;71.82;102237.24;107175;1254;125211;-87
2023/05/21 00:27:07;;;;;;;;;;;;;;;11.63;71.86;102232.02;107240;1254;72685;-87
2023/05/21 00:29:42;;;;;;;;;;;;;;;11.62;72.03;102228.11;107398;1254;61269;-86
2023/05/21 00:32:15;;;;;;;;;;;;;;;11.61;72.05;102229.98;107134;1257;125041;-86
2023/05/21 00:34:43;;;;;;;;;;;;;;;11.61;72.15;102233.33;107359;1254;73055;-86
2023/05/21 00:37:33;;;;;;;;;;;;;;;11.60;72.22;102235.90;107320;1254;124896;-87
2023/05/21 00:40:10;;;;;;;;;;;;;;;11.58;72.19;102235.46;107449;1255;72868;-86
2023/05/21 00:42:46;;;;;;;;;;;;;;;11.55;72.25;102231.81;107268;1257;125211;-86
2023/05/21 00:45:20;;;;;;;;;;;;;;;11.54;72.40;102232.64;107248;1255;61151;-86
2023/05/21 00:47:47;;;;;;;;;;;;;;;11.53;72.53;102231.71;107156;1254;73014;-86
2023/05/21 00:50:14;;;;;;;;;;;;;;;11.52;72.45;102232.04;107344;1253;66273;-86
2023/05/21 00:52:41;;;;;;;;;;;;;;;11.50;72.52;102232.14;107454;1254;72703;-86
2023/05/21 00:55:08;;;;;;;;;;;;;;;11.50;72.62;102235.27;107309;1254;124884;-86
2023/05/21 00:57:49;;;;;;;;;;;;;;;11.48;72.68;102232.39;107222;1254;61442;-87
2023/05/21 01:00:17;;;;;;;;;;;;;;;11.47;72.74;102235.89;107036;1254;125123;-87
2023/05/21 01:02:43;;;;;;;;;;;;;;;11.47;72.84;102237.80;107289;1254;67069;-87
2023/05/21 01:05:14;;;;;;;;;;;;;;;11.45;72.84;102238.60;107329;1254;71393;-87
2023/05/21 01:07:42;;;;;;;;;;;;;;;11.45;72.98;102241.92;107337;1254;125373;-87
2023/05/21 01:10:09;;;;;;;;;;;;;;;11.42;73.03;102242.52;107320;1254;61302;-87
2023/05/21 01:12:36;;;;;;;;;;;;;;;11.39;72.98;102237.27;107266;1254;124929;-87
2023/05/21 01:15:04;;;;;;;;;;;;;;;11.37;73.01;102238.39;107477;1254;65813;-87
2023/05/21 01:17:33;;;;;;;;;;;;;;;11.33;73.24;102233.84;107509;1254;71339;-87
2023/05/21 01:20:08;;;;;;;;;;;;;;;11.33;73.26;102237.35;107542;1254;124878;-88
2023/05/21 01:22:38;;;;;;;;;;;;;;;11.33;73.30;102236.63;107674;1254;61021;-89
2023/05/21 01:25:07;;;;;;;;;;;;;;;11.32;73.50;102233.80;107397;1258;75234;-89
2023/05/21 01:27:53;;;;;;;;;;;;;;;11.32;73.48;102232.34;107395;1255;67216;-87
2023/05/21 01:30:28;;;;;;;;;;;;;;;11.32;73.56;102235.14;107414;1255;74156;-87
2023/05/21 01:33:00;;;;;;;;;;;;;;;11.31;73.61;102234.61;107203;1260;61355;-85
2023/05/21 01:35:28;;;;;;;;;;;;;;;11.29;73.60;102230.13;107389;1256;61006;-86
2023/05/21 01:38:30;;;;;;;;;;;;;;;11.27;73.66;102229.55;107360;1254;125216;-86
2023/05/21 01:41:11;;;;;;;;;;;;;;;11.25;73.78;102224.31;106753;1264;65828;-86
2023/05/21 01:43:45;;;;;;;;;;;;;;;11.23;73.82;102226.17;107169;1257;125114;-86
2023/05/21 01:46:17;;;;;;;;;;;;;;;11.21;73.85;102227.48;107384;1258;61746;-86
2023/05/21 01:48:45;;;;;;;;;;;;;;;11.19;73.86;102226.86;107324;1254;124925;-86
2023/05/21 01:51:12;;;;;;;;;;;;;;;11.16;73.90;102231.30;107152;1257;74683;-86
2023/05/21 01:53:46;;;;;;;;;;;;;;;11.14;73.98;102231.54;107314;1254;65691;-86
2023/05/21 01:56:44;;;;;;;;;;;;;;;11.11;74.09;102229.30;107694;1254;124862;-86
2023/05/21 01:59:20;;;;;;;;;;;;;;;11.08;74.11;102230.58;107199;1254;61733;-86
2023/05/21 02:01:55;;;;;;;;;;;;;;;11.07;74.26;102228.44;107217;1257;125118;-86
2023/05/21 02:04:22;;;;;;;;;;;;;;;11.06;74.28;102228.19;107383;1254;73424;-86
2023/05/21 02:06:49;;;;;;;;;;;;;;;11.05;74.37;102229.55;107350;1254;124825;-86
2023/05/21 02:09:24;;;;;;;;;;;;;;;11.03;74.33;102230.00;107309;1256;71383;-86
2023/05/21 02:12:12;;;;;;;;;;;;;;;11.02;74.50;102228.17;107146;1256;61251;-86
2023/05/21 02:14:39;;;;;;;;;;;;;;;11.01;74.60;102230.23;107390;1254;60822;-86
2023/05/21 02:17:07;;;;;;;;;;;;;;;11.01;74.65;102231.81;107504;1254;74649;-86
2023/05/21 02:19:37;;;;;;;;;;;;;;;11.01;74.63;102236.02;107444;1257;125366;-86
2023/05/21 02:22:04;;;;;;;;;;;;;;;11.01;74.73;102238.17;107481;1256;71345;-86
2023/05/21 02:24:39;;;;;;;;;;;;;;;11.02;74.70;102238.73;107290;1254;125098;-86
2023/05/21 02:27:21;;;;;;;;;;;;;;;11.02;74.69;102239.59;107245;1259;61173;-86
2023/05/21 02:29:48;;;;;;;;;;;;;;;11.02;74.69;102239.77;107267;1254;75187;-86
2023/05/21 02:32:27;;;;;;;;;;;;;;;11.02;74.78;102235.91;107211;1254;124684;-85
2023/05/21 02:35:03;;;;;;;;;;;;;;;11.02;74.87;102236.80;107262;1255;72727;-85
2023/05/21 02:37:32;;;;;;;;;;;;;;;11.01;74.87;102237.26;107255;1255;124960;-85
2023/05/21 02:40:18;;;;;;;;;;;;;;;11.02;74.85;102239.41;107118;1254;61306;-86
2023/05/21 02:42:51;;;;;;;;;;;;;;;11.04;74.96;102237.94;107055;1255;125151;-86
2023/05/21 02:45:30;;;;;;;;;;;;;;;11.06;74.91;102237.49;107071;1254;65754;-85
2023/05/21 02:48:00;;;;;;;;;;;;;;;11.07;74.90;102236.15;107159;1254;72397;-85
2023/05/21 02:50:33;;;;;;;;;;;;;;;11.09;74.98;102230.98;107491;1255;124633;-86
2023/05/21 02:53:00;;;;;;;;;;;;;;;11.14;74.99;102232.79;107599;1254;62047;-85
2023/05/21 02:56:03;;;;;;;;;;;;;;;11.18;75.00;102225.06;107172;1257;124842;-85
2023/05/21 02:58:30;;;;;;;;;;;;;;;11.23;74.94;102225.67;107294;1254;65941;-85
2023/05/21 03:01:05;;;;;;;;;;;;;;;11.30;75.03;102226.65;107502;1254;124898;-85
2023/05/21 03:03:32;;;;;;;;;;;;;;;11.36;74.92;102230.09;107536;1254;61183;-85
2023/05/21 03:06:08;;;;;;;;;;;;;;;11.41;74.88;102231.02;107360;1254;60777;-85
2023/05/21 03:08:42;;;;;;;;;;;;;;;11.49;74.81;102231.71;107030;1254;74662;-85
2023/05/21 03:11:08;;;;;;;;;;;;;;;11.55;74.73;102229.19;107371;1254;65600;-86
2023/05/21 03:13:45;;;;;;;;;;;;;;;11.62;74.78;102228.98;107306;1254;124786;-85
2023/05/21 03:16:27;;;;;;;;;;;;;;;11.71;74.70;102224.61;107518;1254;60159;-86
2023/05/21 03:19:01;;;;;;;;;;;;;;;11.79;74.65;102223.56;107365;1254;124903;-86
2023/05/21 03:21:41;;;;;;;;;;;;;;;11.86;74.50;102223.02;107711;1254;73121;-85
2023/05/21 03:24:12;;;;;;;;;;;;;;;11.96;74.38;102226.08;107590;1254;125095;-85
2023/05/21 03:27:15;;;;;;;;;;;;;;;12.03;74.28;102226.58;107491;1256;72677;-86
2023/05/21 03:29:44;;;;;;;;;;;;;;;12.13;74.15;102219.73;107549;1254;61138;-86
2023/05/21 03:32:19;;;;;;;;;;;;;;;12.23;74.12;102224.78;107356;1254;125132;-86
2023/05/21 03:34:55;;;;;;;;;;;;;;;12.35;73.97;102222.06;107334;1254;74667;-86
2023/05/21 03:37:31;;;;;;;;;;;;;;;12.45;73.95;102221.60;107567;1254;124718;-86
2023/05/21 03:40:07;;;;;;;;;;;;;;;12.73;74.44;102225.02;107544;1254;73203;-87
2023/05/21 03:42:34;;;;;;;;;;;;;;;13.49;75.33;102221.07;107369;1254;125461;-87
2023/05/21 03:45:13;;;;;;;;;;;;;;;14.37;74.71;102218.66;107413;1255;61111;-87
2023/05/21 03:47:47;;;;;;;;;;;;;;;15.41;74.26;102212.14;107441;1254;73463;-86
2023/05/21 03:50:14;;;;;;;;;;;;;;;16.57;73.38;102205.25;107323;1254;124381;-86
2023/05/21 03:52:42;;;;;;;;;;;;;;;17.63;72.13;102200.63;107525;1254;72693;-87
2023/05/21 03:55:31;;;;;;;;;;;;;;;18.64;70.62;102196.31;107364;1254;124095;-86
2023/05/21 03:58:04;;;;;;;;;;;;;;;19.69;68.77;102193.40;107404;1254;61104;-86
2023/05/21 04:00:33;;;;;;;;;;;;;;;20.56;67.38;102191.33;107387;1257;124333;-86
2023/05/21 04:03:36;;;;;;;;;;;;;;;21.29;65.66;102188.69;107456;1254;67062;-87
2023/05/21 04:06:03;;;;;;;;;;;;;;;21.96;63.89;102184.20;107305;1254;71460;-86
2023/05/21 04:08:36;;;;;;;;;;;;;;;22.51;62.74;102184.21;107476;1254;124368;-86
2023/05/21 04:11:08;;;;;;;;;;;;;;;23.15;61.78;102177.95;107558;1254;60639;-86
2023/05/21 04:13:35;;;;;;;;;;;;;;;23.89;60.77;102181.82;107712;1254;124306;-85
2023/05/21 04:16:25;;;;;;;;;;;;;;;24.63;59.46;102185.13;107527;1254;65764;-86
2023/05/21 04:19:00;;;;;;;;;;;;;;;25.32;58.05;102185.58;107455;1254;124142;-86
2023/05/21 04:21:27;;;;;;;;;;;;;;;25.97;57.00;102181.75;107465;1254;61493;-86
2023/05/21 04:23:56;;;;;;;;;;;;;;;26.57;55.81;102182.88;107293;1254;61333;-85
2023/05/21 04:26:35;;;;;;;;;;;;;;;27.15;54.66;102181.75;107007;1254;124081;-86
2023/05/21 04:29:03;;;;;;;;;;;;;;;27.68;53.59;102184.34;107196;1254;62113;-86
2023/05/21 04:31:33;;;;;;;;;;;;;;;28.31;52.58;102183.33;107263;1254;124092;-87
2023/05/21 04:44:22;;;;;;;;;;;;;;;30.31;47.34;102182.38;107139;1259;124139;-90
2023/05/21 04:46:51;;;;;;;;;;;;;;;30.88;46.49;102179.96;107185;1255;62511;-87
2023/05/21 04:49:33;;;;;;;;;;;;;;;31.41;45.53;102178.84;106946;1259;124499;-86
2023/05/21 04:52:01;;;;;;;;;;;;;;;31.92;44.81;102178.77;107357;1254;59720;-86
2023/05/21 04:54:44;;;;;;;;;;;;;;;32.47;43.98;102177.87;107400;1254;124282;-86
2023/05/21 04:57:23;;;;;;;;;;;;;;;32.87;42.87;102174.45;107716;1256;60308;-86
2023/05/21 04:59:56;;;;;;;;;;;;;;;32.99;41.83;102173.15;107463;1254;62482;-84
2023/05/21 05:02:42;;;;;;;;;;;;;;;33.24;41.47;102169.45;107437;1254;124157;-86
2023/05/21 05:05:09;;;;;;;;;;;;;;;33.76;40.96;102167.30;107414;1256;61155;-86
2023/05/21 05:08:04;;;;;;;;;;;;;;;34.27;40.26;102165.26;107411;1254;124211;-86
2023/05/21 05:10:32;;;;;;;;;;;;;;;34.71;39.37;102160.92;107267;1254;60425;-86
2023/05/21 05:12:59;;;;;;;;;;;;;;;35.14;39.01;102160.90;107405;1254;124255;-85
2023/05/21 05:15:32;;;;;;;;;;;;;;;35.50;38.04;102162.13;107378;1254;61276;-84
2023/05/21 05:17:59;;;;;;;;;;;;;;;35.75;37.28;102163.26;107580;1254;61256;-84
2023/05/21 05:20:26;;;;;;;;;;;;;;;35.99;36.95;102163.29;107279;1254;123889;-84
2023/05/21 05:22:58;;;;;;;;;;;;;;;36.06;36.35;102166.34;107374;1254;61170;-86
2023/05/21 05:25:32;;;;;;;;;;;;;;;36.21;35.97;102167.46;107419;1254;124420;-85
2023/05/21 05:28:25;;;;;;;;;;;;;;;36.46;35.49;102165.78;107387;1254;60540;-86
2023/05/21 05:30:58;;;;;;;;;;;;;;;36.60;34.84;102165.98;107632;1257;126852;-84
2023/05/21 05:33:38;;;;;;;;;;;;;;;36.62;34.21;102165.88;107557;1259;66060;-87
2023/05/21 05:36:05;;;;;;;;;;;;;;;35.56;33.01;102168.14;107609;1254;124383;-85
2023/05/21 05:38:45;;;;;;;;;;;;;;;33.82;33.20;102168.58;107672;1254;62451;-84
2023/05/21 05:41:12;;;;;;;;;;;;;;;32.08;33.83;102170.42;107482;1254;59559;-85
2023/05/21 05:43:45;;;;;;;;;;;;;;;30.54;34.42;102165.76;107243;1255;124068;-85
2023/05/21 05:46:18;;;;;;;;;;;;;;;29.12;35.23;102162.98;107712;1253;66065;-86
2023/05/21 05:49:12;;;;;;;;;;;;;;;27.90;36.20;102165.04;107140;1259;124487;-85
2023/05/21 05:51:40;;;;;;;;;;;;;;;26.83;36.97;102164.89;107059;1259;72726;-85
2023/05/21 05:54:07;;;;;;;;;;;;;;;25.97;37.53;102168.26;107134;1259;60740;-87
2023/05/21 05:56:34;;;;;;;;;;;;;;;25.29;38.35;102165.86;106966;1260;124344;-86
2023/05/21 05:59:07;;;;;;;;;;;;;;;24.78;39.17;102168.63;107201;1260;74723;-88
2023/05/21 06:01:34;;;;;;;;;;;;;;;24.32;39.75;102166.05;107042;1260;124277;-88
2023/05/21 06:04:02;;;;;;;;;;;;;;;23.85;40.16;102165.73;106994;1259;71370;-87
2023/05/21 06:06:33;;;;;;;;;;;;;;;23.45;40.75;102165.98;106746;1262;124442;-90
2023/05/21 06:09:06;;;;;;;;;;;;;;;23.04;41.14;102167.08;106908;1260;61144;-89
2023/05/21 06:11:33;;;;;;;;;;;;;;;22.66;41.85;102168.09;106953;1260;73808;-88
2023/05/21 06:14:01;;;;;;;;;;;;;;;22.47;42.18;102167.59;106938;1264;124187;-86
2023/05/21 06:16:30;;;;;;;;;;;;;;;22.22;42.62;102171.35;107110;1259;70289;-88
2023/05/21 06:18:57;;;;;;;;;;;;;;;22.03;43.06;102168.66;106982;1259;124254;-89
2023/05/21 06:21:31;;;;;;;;;;;;;;;21.92;43.42;102170.63;107573;1254;60469;-89
2023/05/21 06:24:11;;;;;;;;;;;;;;;21.78;43.69;102171.16;107462;1254;75197;-89
2023/05/21 06:26:40;;;;;;;;;;;;;;;21.75;44.04;102163.29;107566;1254;123934;-90
2023/05/21 06:29:07;;;;;;;;;;;;;;;21.73;44.29;102162.22;107575;1254;71431;-89
2023/05/21 06:31:40;;;;;;;;;;;;;;;21.68;44.30;102166.84;107542;1254;124393;-86
2023/05/21 06:34:07;;;;;;;;;;;;;;;21.45;44.43;102167.67;107625;1254;62168;-88
2023/05/21 06:36:34;;;;;;;;;;;;;;;21.33;44.80;102165.66;107462;1254;124794;-86
2023/05/21 06:39:19;;;;;;;;;;;;;;;21.26;45.00;102162.60;107548;1254;66526;-87
2023/05/21 06:41:51;;;;;;;;;;;;;;;21.27;45.16;102165.10;107748;1254;72388;-87
2023/05/21 06:44:28;;;;;;;;;;;;;;;21.21;45.23;102166.52;107557;1256;124065;-88
2023/05/21 06:47:03;;;;;;;;;;;;;;;21.08;45.54;102160.58;107668;1253;61292;-85
2023/05/21 06:49:31;;;;;;;;;;;;;;;21.01;45.75;102166.45;107449;1254;124738;-88
2023/05/21 06:51:58;;;;;;;;;;;;;;;20.96;45.91;102168.02;107908;1254;67003;-83
2023/05/21 06:54:26;;;;;;;;;;;;;;;20.93;45.86;102167.84;107904;1253;124575;-83
2023/05/21 06:56:53;;;;;;;;;;;;;;;20.86;45.96;102167.79;107592;1254;61790;-84
2023/05/21 06:59:20;;;;;;;;;;;;;;;20.86;46.06;102172.25;107736;1254;60107;-83
2023/05/21 07:01:47;;;;;;;;;;;;;;;20.84;45.96;102169.74;107327;1254;124103;-84
2023/05/21 07:04:15;;;;;;;;;;;;;;;20.85;46.06;102170.47;107522;1254;67403;-84
2023/05/21 07:06:42;;;;;;;;;;;;;;;20.90;46.27;102171.20;107495;1254;124636;-83
2023/05/21 07:09:10;;;;;;;;;;;;;;;20.86;46.12;102168.67;107767;1253;61017;-83
2023/05/21 07:11:37;;;;;;;;;;;;;;;20.84;46.33;102170.13;107715;1259;60556;-80
2023/05/21 07:14:04;;;;;;;;;;;;;;;20.88;46.34;102171.20;107586;1256;124014;-83
2023/05/21 07:16:31;;;;;;;;;;;;;;;20.90;46.28;102170.14;107662;1254;67073;-82
2023/05/21 07:18:58;;;;;;;;;;;;;;;20.91;46.33;102168.19;108250;1254;124864;-83
2023/05/21 07:21:25;;;;;;;;;;;;;;;20.93;46.37;102170.15;108031;1256;61030;-81
2023/05/21 07:23:53;;;;;;;;;;;;;;;20.85;46.35;102164.05;107589;1258;61369;-82
2023/05/21 07:26:21;;;;;;;;;;;;;;;20.78;46.33;102164.38;107760;1254;124390;-82
2023/05/21 07:28:48;;;;;;;;;;;;;;;20.73;46.39;102163.81;108197;1254;67049;-82
2023/05/21 07:31:15;;;;;;;;;;;;;;;20.78;46.72;102160.27;108051;1254;125245;-81
2023/05/21 07:33:42;;;;;;;;;;;;;;;20.83;46.71;102155.84;108216;1254;60471;-81
2023/05/21 07:36:09;;;;;;;;;;;;;;;20.87;46.88;102154.07;107973;1254;60611;-81
2023/05/21 07:38:36;;;;;;;;;;;;;;;20.90;46.66;102154.08;108939;1254;124117;-83
2023/05/21 07:41:03;;;;;;;;;;;;;;;20.91;46.53;102155.33;108912;1254;67816;-84
2023/05/21 07:43:30;;;;;;;;;;;;;;;20.94;46.53;102155.88;109047;1254;124762;-82
2023/05/21 07:45:58;;;;;;;;;;;;;;;20.98;46.31;102158.40;108987;1253;59407;-82
2023/05/21 07:48:25;;;;;;;;;;;;;;;21.02;46.44;102155.56;108853;1254;124772;-82
2023/05/21 07:50:52;;;;;;;;;;;;;;;21.09;46.87;102153.98;108953;1259;73762;-81
2023/05/21 07:53:19;;;;;;;;;;;;;;;21.15;47.09;102153.83;109018;1254;67810;-82
2023/05/21 07:55:46;;;;;;;;;;;;;;;21.22;46.98;102157.77;108806;1254;125736;-82
2023/05/21 07:58:17;;;;;;;;;;;;;;;21.22;47.04;102152.96;108981;1254;59470;-82
2023/05/21 08:00:45;;;;;;;;;;;;;;;21.22;47.13;102157.77;108994;1254;124201;-83
2023/05/21 08:03:14;;;;;;;;;;;;;;;21.27;47.18;102156.90;108979;1253;74430;-82
2023/05/21 08:05:47;;;;;;;;;;;;;;;21.31;47.22;102156.02;108909;1254;67049;-82
2023/05/21 08:08:17;;;;;;;;;;;;;;;21.36;47.34;102156.04;108817;1254;124413;-82
2023/05/21 08:10:45;;;;;;;;;;;;;;;21.42;47.20;102155.68;108893;1254;59413;-82
2023/05/21 08:13:12;;;;;;;;;;;;;;;21.47;47.16;102157.70;108858;1254;127174;-82
2023/05/21 08:15:39;;;;;;;;;;;;;;;21.50;46.88;102157.89;108890;1257;73340;-82
2023/05/21 08:18:06;;;;;;;;;;;;;;;21.50;46.67;102158.60;108858;1260;65343;-81
2023/05/21 08:20:33;;;;;;;;;;;;;;;21.46;46.58;102157.16;108771;1256;124077;-81
2023/05/21 08:23:00;;;;;;;;;;;;;;;21.46;46.77;102155.20;108926;1255;59975;-81
2023/05/21 08:25:27;;;;;;;;;;;;;;;21.50;46.70;102153.05;108812;1256;124229;-82
2023/05/21 08:27:53;;;;;;;;;;;;;;;21.56;46.37;102155.04;108920;1257;74124;-82
2023/05/21 08:30:20;;;;;;;;;;;;;;;21.62;46.19;102152.20;108756;1259;124298;-82
2023/05/21 08:32:47;;;;;;;;;;;;;;;21.69;46.53;102146.30;108849;1255;72395;-82
2023/05/21 08:35:15;;;;;;;;;;;;;;;21.78;46.34;102142.38;108854;1258;59190;-82
2023/05/21 08:37:42;;;;;;;;;;;;;;;21.82;46.24;102143.10;108788;1256;124314;-82
2023/05/21 08:40:10;;;;;;;;;;;;;;;21.87;46.15;102142.75;108856;1257;74716;-83
2023/05/21 08:42:46;;;;;;;;;;;;;;;21.90;46.10;102140.96;108730;1257;125084;-82
2023/05/21 08:45:23;;;;;;;;;;;;;;;21.94;45.97;102139.16;108951;1256;73176;-83
2023/05/21 08:47:54;;;;;;;;;;;;;;;21.96;45.98;102133.98;109016;1258;59425;-83
2023/05/21 08:50:21;;;;;;;;;;;;;;;21.94;45.63;102137.39;107756;1262;124092;-83
2023/05/21 08:52:49;;;;;;;;;;;;;;;21.96;45.35;102136.31;107565;1255;75677;-82
2023/05/21 08:55:16;;;;;;;;;;;;;;;22.02;45.71;102134.52;107365;1256;124293;-82
2023/05/21 08:57:42;;;;;;;;;;;;;;;22.10;45.59;102136.30;107660;1256;72683;-82
2023/05/21 09:00:10;;;;;;;;;;;;;;;22.16;45.38;102137.91;107923;1255;61493;-82
2023/05/21 09:02:39;;;;;;;;;;;;;;;22.21;45.23;102136.83;107465;1256;124860;-82
2023/05/21 09:05:07;;;;;;;;;;;;;;;22.27;45.34;102135.43;107708;1259;73361;-82
2023/05/21 09:07:47;;;;;;;;;;;;;;;22.32;45.32;102133.98;108827;1257;124725;-82
2023/05/21 09:10:14;;;;;;;;;;;;;;;22.37;44.87;102132.02;108908;1255;72970;-81
2023/05/21 09:12:41;;;;;;;;;;;;;;;22.41;44.73;102131.48;108372;1256;124407;-82
2023/05/21 09:15:08;;;;;;;;;;;;;;;22.46;44.71;102134.67;107897;1254;62218;-82
2023/05/21 09:17:35;;;;;;;;;;;;;;;22.52;44.76;102132.16;107905;1254;73008;-82
2023/05/21 09:20:09;;;;;;;;;;;;;;;22.57;44.81;102130.52;108992;1254;124690;-82
2023/05/21 09:22:39;;;;;;;;;;;;;;;22.63;44.72;102130.69;108661;1254;72741;-82
2023/05/21 09:25:09;;;;;;;;;;;;;;;22.69;45.08;102125.30;107799;1259;124250;-82
2023/05/21 09:27:36;;;;;;;;;;;;;;;22.74;44.97;102124.40;108065;1254;61023;-81
2023/05/21 09:30:03;;;;;;;;;;;;;;;22.75;44.73;102124.58;107972;1253;75198;-82
2023/05/21 09:32:31;;;;;;;;;;;;;;;22.69;44.36;102124.06;107823;1253;124283;-83
2023/05/21 09:35:00;;;;;;;;;;;;;;;22.67;44.48;102125.49;108895;1254;72673;-82
2023/05/21 09:37:28;;;;;;;;;;;;;;;22.69;44.39;102128.34;108881;1253;59302;-82
2023/05/21 09:39:55;;;;;;;;;;;;;;;22.71;44.57;102127.98;108962;1254;59459;-81
2023/05/21 09:42:22;;;;;;;;;;;;;;;22.74;44.49;102129.58;108017;1256;73054;-82
2023/05/21 09:44:50;;;;;;;;;;;;;;;22.72;44.32;102127.98;107704;1255;66806;-81
2023/05/21 09:47:18;;;;;;;;;;;;;;;22.71;44.48;102122.61;107737;1254;72461;-83
2023/05/21 09:49:45;;;;;;;;;;;;;;;22.77;44.67;102117.77;107640;1254;61218;-83
2023/05/21 09:52:12;;;;;;;;;;;;;;;22.82;44.35;102118.46;107834;1254;61247;-82
2023/05/21 09:54:41;;;;;;;;;;;;;;;22.77;43.87;102115.44;107736;1254;73954;-86
2023/05/21 09:57:14;;;;;;;;;;;;;;;22.74;43.92;102120.27;107548;1255;67060;-81
2023/05/21 09:59:41;;;;;;;;;;;;;;;22.71;43.70;102118.14;107436;1254;73083;-82
2023/05/21 10:02:18;;;;;;;;;;;;;;;22.67;43.60;102116.90;107686;1254;61644;-82
2023/05/21 10:04:46;;;;;;;;;;;;;;;22.66;43.61;102112.08;108235;1254;59352;-83
2023/05/21 10:07:24;;;;;;;;;;;;;;;22.72;44.06;102109.02;107485;1254;73148;-83
2023/05/21 10:09:56;;;;;;;;;;;;;;;22.86;43.92;102114.33;107636;1257;65871;-82
2023/05/21 10:12:26;;;;;;;;;;;;;;;22.91;43.34;102110.02;107678;1255;71664;-82
2023/05/21 10:15:00;;;;;;;;;;;;;;;22.97;43.45;102106.20;107524;1256;60556;-80
2023/05/21 10:17:30;;;;;;;;;;;;;;;23.05;43.62;102108.19;107653;1256;59330;-81
2023/05/21 10:19:57;;;;;;;;;;;;;;;23.08;43.65;102108.88;107886;1256;74216;-81
2023/05/21 10:22:25;;;;;;;;;;;;;;;23.13;43.85;102109.58;108908;1256;67586;-81
2023/05/21 10:24:55;;;;;;;;;;;;;;;23.19;43.76;102106.67;108471;1257;72231;-83
2023/05/21 10:27:22;;;;;;;;;;;;;;;23.26;43.95;102104.48;107672;1257;60104;-82
2023/05/21 10:29:48;;;;;;;;;;;;;;;23.34;44.31;102104.24;107786;1259;61227;-82
2023/05/21 10:32:18;;;;;;;;;;;;;;;23.43;44.41;102105.26;107686;1259;124305;-82
2023/05/21 10:34:47;;;;;;;;;;;;;;;23.46;44.56;102106.14;107776;1259;67543;-82
2023/05/21 10:37:14;;;;;;;;;;;;;;;23.41;44.73;102102.77;107622;1256;124804;-83
2023/05/21 10:39:41;;;;;;;;;;;;;;;23.32;44.86;102102.48;107654;1256;61388;-82
2023/05/21 10:42:20;;;;;;;;;;;;;;;23.25;44.67;102105.73;107871;1256;59865;-81
2023/05/21 10:44:51;;;;;;;;;;;;;;;23.10;44.97;102098.67;108024;1257;124667;-81
2023/05/21 10:47:37;;;;;;;;;;;;;;;23.07;44.91;102099.58;107565;1256;66859;-81
2023/05/21 10:50:07;;;;;;;;;;;;;;;23.03;44.74;102092.60;107401;1259;124690;-82
2023/05/21 10:52:34;;;;;;;;;;;;;;;23.04;44.87;102093.15;107823;1255;60430;-82
2023/05/21 10:55:13;;;;;;;;;;;;;;;23.02;44.60;102089.73;107736;1256;124367;-81
2023/05/21 10:57:40;;;;;;;;;;;;;;;22.98;44.37;102089.74;107877;1256;75466;-81
2023/05/21 11:00:08;;;;;;;;;;;;;;;22.93;44.44;102088.52;107778;1257;66766;-82
2023/05/21 11:02:36;;;;;;;;;;;;;;;22.89;44.39;102086.20;107530;1256;124205;-83
2023/05/21 11:05:04;;;;;;;;;;;;;;;22.84;44.26;102084.26;107655;1255;61184;-83
2023/05/21 11:07:58;;;;;;;;;;;;;;;22.79;44.29;102076.77;107693;1257;124590;-82
2023/05/21 11:10:34;;;;;;;;;;;;;;;22.76;44.23;102084.29;107771;1256;73553;-82
2023/05/21 11:13:04;;;;;;;;;;;;;;;22.70;43.97;102087.36;107890;1256;124283;-82
2023/05/21 11:15:51;;;;;;;;;;;;;;;22.66;44.04;102080.77;108000;1254;71447;-83
2023/05/21 11:18:19;;;;;;;;;;;;;;;22.64;44.09;102082.04;107987;1254;61257;-82
2023/05/21 11:20:50;;;;;;;;;;;;;;;22.65;44.24;102086.32;107850;1254;125013;-82
2023/05/21 11:23:21;;;;;;;;;;;;;;;22.64;43.81;102088.83;107532;1254;73400;-82
2023/05/21 11:25:59;;;;;;;;;;;;;;;22.59;43.67;102089.20;107556;1254;125017;-81
2023/05/21 11:28:33;;;;;;;;;;;;;;;22.56;43.30;102087.77;107776;1255;72329;-82
2023/05/21 11:31:18;;;;;;;;;;;;;;;22.49;43.09;102080.83;107631;1253;124369;-82
2023/05/21 11:33:46;;;;;;;;;;;;;;;22.46;43.02;102084.41;107739;1257;61102;-82
2023/05/21 11:36:13;;;;;;;;;;;;;;;22.40;42.54;102079.95;107617;1256;73811;-80
2023/05/21 11:38:40;;;;;;;;;;;;;;;22.33;42.42;102083.55;108257;1257;124908;-81
2023/05/21 11:41:07;;;;;;;;;;;;;;;22.27;42.57;102082.67;108298;1255;71372;-80
2023/05/21 11:43:39;;;;;;;;;;;;;;;22.24;42.58;102076.75;107864;1257;125209;-80
2023/05/21 11:46:05;;;;;;;;;;;;;;;22.26;42.70;102078.92;108088;1259;61130;-82
2023/05/21 11:48:32;;;;;;;;;;;;;;;22.28;42.56;102078.73;107751;1254;75485;-81
2023/05/21 11:50:59;;;;;;;;;;;;;;;22.27;42.42;102082.67;107691;1257;124229;-82
2023/05/21 11:53:28;;;;;;;;;;;;;;;22.25;42.10;102089.83;108010;1257;71108;-80
2023/05/21 11:55:56;;;;;;;;;;;;;;;22.18;41.92;102076.56;107972;1257;124713;-81
2023/05/21 11:58:23;;;;;;;;;;;;;;;22.19;42.04;102083.38;107771;1256;60246;-82
2023/05/21 12:00:50;;;;;;;;;;;;;;;22.17;41.85;102081.05;107736;1257;125254;-81
2023/05/21 12:03:17;;;;;;;;;;;;;;;22.20;41.93;102079.62;107789;1254;67043;-80
2023/05/21 12:05:45;;;;;;;;;;;;;;;22.26;41.86;102079.63;109084;1255;73227;-81
2023/05/21 12:08:13;;;;;;;;;;;;;;;22.30;41.90;102079.45;109048;1257;124081;-82
2023/05/21 12:10:40;;;;;;;;;;;;;;;22.32;41.67;102076.75;108925;1254;59752;-83
2023/05/21 12:13:07;;;;;;;;;;;;;;;22.27;41.24;102074.45;108875;1257;125091;-83
2023/05/21 12:15:34;;;;;;;;;;;;;;;22.23;41.19;102074.41;108847;1255;65989;-81
2023/05/21 12:18:01;;;;;;;;;;;;;;;22.26;41.21;102074.27;108725;1255;257777;-84
2023/05/21 12:20:29;;;;;;;;;;;;;;;22.26;41.26;102074.44;107242;1256;124994;-83
2023/05/21 12:22:56;;;;;;;;;;;;;;;22.28;41.17;102082.67;107648;1257;60020;-81
2023/05/21 12:25:30;;;;;;;;;;;;;;;22.29;41.14;102081.05;107540;1257;124677;-82
2023/05/21 12:28:00;;;;;;;;;;;;;;;22.29;41.03;102082.85;107856;1257;66016;-81
2023/05/21 12:30:27;;;;;;;;;;;;;;;22.24;41.16;102078.71;108109;1257;71800;-81
2023/05/21 12:32:56;;;;;;;;;;;;;;;22.24;41.23;102081.58;107838;1261;124686;-82
2023/05/21 12:35:23;;;;;;;;;;;;;;;22.24;41.54;102078.36;107619;1255;60956;-81
2023/05/21 12:37:50;;;;;;;;;;;;;;;22.27;41.65;102080.16;107823;1257;73929;-80
2023/05/21 12:40:17;;;;;;;;;;;;;;;22.36;41.57;102080.87;107939;1257;65909;-81
2023/05/21 12:42:44;;;;;;;;;;;;;;;22.42;41.66;102080.13;107808;1255;72708;-81
2023/05/21 12:45:13;;;;;;;;;;;;;;;22.48;41.65;102080.47;107687;1256;124678;-82
2023/05/21 12:47:40;;;;;;;;;;;;;;;22.52;41.24;102081.17;107867;1256;59872;-81
2023/05/21 12:50:08;;;;;;;;;;;;;;;22.49;40.53;102075.63;107615;1257;125501;-81
2023/05/21 12:52:35;;;;;;;;;;;;;;;22.43;40.38;102076.55;107522;1254;67012;-80
2023/05/21 12:55:14;;;;;;;;;;;;;;;22.40;40.13;102071.20;107939;1257;124870;-84